Time;durP1;ratioP1;P1;durP2;ratioP2;P2;SDS_P1;SDS_P2;PMS_P1;PMS_P2;Temp;Humidity;BMP_temperature;BMP_pressure;BME280_temperature;BME280_humidity;BME280_pressure;Samples;Min_cycle;Max_cycle;Signal;HPM_P1;HPM_P2
2022/08/30 00:01:25;;;;;;;;;4.75;4.75;;;;;20.21;45.96;100840.47;5117637;27;46487;-79
2022/08/30 00:03:53;;;;;;;;;4.50;4.50;;;;;20.16;46.05;100837.31;5117601;27;45383;-79
2022/08/30 00:06:20;;;;;;;;;3.00;3.00;;;;;20.05;46.41;100821.22;5097968;27;45302;-78
2022/08/30 00:08:47;;;;;;;;;5.75;5.75;;;;;20.07;45.84;100830.84;5116669;27;45359;-78
2022/08/30 00:11:16;;;;;;;;;6.75;6.75;;;;;20.06;46.16;100839.81;5117296;27;46336;-78
2022/08/30 00:13:43;;;;;;;;;6.00;6.00;;;;;20.03;46.24;100847.19;5119076;27;45252;-79
2022/08/30 00:16:11;;;;;;;;;3.50;3.50;;;;;19.99;46.30;100854.59;5103668;27;45445;-77
2022/08/30 00:18:37;;;;;;;;;2.75;2.75;;;;;19.97;45.83;100860.03;5127875;27;45281;-78
2022/08/30 00:21:03;;;;;;;;;3.00;3.00;;;;;19.94;45.93;100856.78;5110285;27;48454;-77
2022/08/30 00:23:28;;;;;;;;;3.00;3.00;;;;;19.94;46.28;100862.13;5127506;27;45427;-78
2022/08/30 00:25:53;;;;;;;;;4.50;4.50;;;;;19.93;45.85;100861.25;5127741;27;45701;-79
2022/08/30 00:28:19;;;;;;;;;4.25;4.25;;;;;19.94;46.25;100868.28;5122016;27;45081;-78
2022/08/30 00:30:46;;;;;;;;;5.00;5.00;;;;;19.93;46.01;100863.09;5119679;27;45496;-78
2022/08/30 00:33:13;;;;;;;;;4.00;4.00;;;;;19.84;46.38;100849.44;5120799;27;45326;-79
2022/08/30 00:35:39;;;;;;;;;5.00;5.00;;;;;19.87;46.76;100851.00;5119478;27;45362;-78
2022/08/30 00:38:06;;;;;;;;;5.00;5.00;;;;;19.75;46.23;100827.91;5120014;27;45232;-79
2022/08/30 00:40:32;;;;;;;;;4.50;4.50;;;;;19.80;46.89;100839.09;5101418;27;46517;-79
2022/08/30 00:42:59;;;;;;;;;3.00;3.00;;;;;19.78;46.66;100847.22;5121301;27;45311;-79
2022/08/30 00:45:29;;;;;;;;;6.00;6.00;;;;;19.76;46.72;100851.81;5120523;27;45296;-79
2022/08/30 00:47:55;;;;;;;;;4.50;4.50;;;;;19.71;46.51;100838.81;5121436;27;45390;-79
2022/08/30 00:50:24;;;;;;;;;4.00;3.75;;;;;19.67;46.90;100828.50;5119667;27;45356;-78
2022/08/30 00:52:52;;;;;;;;;4.75;4.75;;;;;19.65;47.21;100841.94;5119466;27;45386;-78
2022/08/30 00:55:19;;;;;;;;;3.75;3.75;;;;;19.67;47.18;100840.00;5101899;27;45535;-78
2022/08/30 00:57:46;;;;;;;;;4.25;4.25;;;;;19.66;46.74;100840.97;5120879;27;45333;-79
2022/08/30 01:00:16;;;;;;;;;4.50;4.50;;;;;19.61;47.40;100832.47;5121351;27;45467;-78
2022/08/30 01:02:42;;;;;;;;;4.00;4.00;;;;;19.63;47.43;100841.22;5105400;27;45380;-80
2022/08/30 01:05:10;;;;;;;;;6.00;5.75;;;;;19.59;47.01;100830.88;5122977;27;45493;-78
2022/08/30 01:07:40;;;;;;;;;3.75;3.75;;;;;19.65;47.20;100835.78;5120921;27;45661;-78
2022/08/30 01:10:08;;;;;;;;;5.50;5.25;;;;;19.66;47.25;100838.31;5119540;27;45260;-79
2022/08/30 01:12:35;;;;;;;;;5.50;5.50;;;;;19.67;47.40;100836.50;5118939;27;45393;-78
2022/08/30 01:15:01;;;;;;;;;4.50;4.50;;;;;19.64;47.52;100842.91;5100153;27;45378;-79
2022/08/30 01:17:28;;;;;;;;;4.75;4.75;;;;;19.68;47.63;100841.72;5100589;27;45519;-78
2022/08/30 01:20:04;;;;;;;;;5.50;5.50;;;;;19.74;47.14;100850.22;5118350;27;46226;-79
2022/08/30 01:23:02;;;;;;;;;5.00;5.00;;;;;19.81;47.27;100863.00;5119070;27;45818;-79
2022/08/30 01:25:29;;;;;;;;;5.00;5.00;;;;;19.75;47.40;100846.59;5108784;27;45219;-79
2022/08/30 01:28:03;;;;;;;;;2.50;2.50;;;;;19.91;46.75;100854.34;5119080;27;45479;-79
2022/08/30 01:30:31;;;;;;;;;5.25;5.25;;;;;19.91;46.74;100857.84;5118030;27;46202;-78
2022/08/30 01:32:59;;;;;;;;;6.00;6.00;;;;;19.90;47.22;100861.47;5117914;27;45548;-79
2022/08/30 01:35:25;;;;;;;;;5.25;5.25;;;;;19.91;46.89;100863.19;5118786;27;45317;-79
2022/08/30 01:37:50;;;;;;;;;6.00;6.00;;;;;19.84;46.96;100860.09;5118701;27;45599;-78
2022/08/30 01:40:17;;;;;;;;;6.00;6.00;;;;;19.95;47.15;100869.16;5118030;27;46356;-79
2022/08/30 01:42:42;;;;;;;;;3.00;3.00;;;;;19.95;46.87;100888.69;5099446;27;45591;-77
2022/08/30 01:45:09;;;;;;;;;4.25;4.25;;;;;19.94;46.98;100895.00;5118653;27;45520;-77
2022/08/30 01:47:34;;;;;;;;;4.50;4.50;;;;;19.81;46.91;100878.16;5118605;27;45534;-79
2022/08/30 01:50:00;;;;;;;;;2.00;2.00;;;;;19.86;47.10;100897.34;5118170;27;46557;-79
2022/08/30 01:52:25;;;;;;;;;5.75;5.75;;;;;19.84;47.46;100894.81;5119428;27;45418;-78
2022/08/30 01:54:52;;;;;;;;;1.00;1.00;;;;;19.82;47.47;100891.41;5120054;27;45387;-78
2022/08/30 01:57:21;;;;;;;;;4.00;4.00;;;;;19.81;46.79;100891.50;5120830;27;45290;-79
2022/08/30 01:59:48;;;;;;;;;7.00;7.00;;;;;19.78;47.21;100884.59;5102918;27;46260;-77
2022/08/30 02:02:17;;;;;;;;;5.75;5.75;;;;;19.82;47.35;100879.84;5122861;27;45475;-78
2022/08/30 02:04:43;;;;;;;;;7.75;7.75;;;;;19.77;47.29;100876.69;5121673;27;45365;-78
2022/08/30 02:07:10;;;;;;;;;8.75;7.75;;;;;19.83;47.46;100881.56;5122756;27;45512;-78
2022/08/30 02:09:36;;;;;;;;;7.00;6.75;;;;;19.88;47.48;100890.06;5122533;27;45460;-78
2022/08/30 02:12:05;;;;;;;;;5.75;5.75;;;;;19.84;47.25;100880.59;5119801;27;45224;-79
2022/08/30 02:14:30;;;;;;;;;6.00;6.00;;;;;19.83;47.33;100884.22;5119423;27;45496;-77
2022/08/30 02:16:55;;;;;;;;;4.75;4.75;;;;;19.86;47.14;100881.34;5120142;27;45597;-78
2022/08/30 02:19:21;;;;;;;;;8.00;8.00;;;;;19.82;47.15;100878.06;5122619;27;46054;-78
2022/08/30 02:21:46;;;;;;;;;5.50;5.50;;;;;19.83;46.91;100885.09;5128690;27;45324;-79
2022/08/30 02:24:11;;;;;;;;;5.50;5.50;;;;;19.87;46.64;100893.72;5109779;27;45340;-77
2022/08/30 02:26:37;;;;;;;;;5.50;5.50;;;;;19.87;47.18;100893.72;5126661;27;45270;-79
2022/08/30 02:29:04;;;;;;;;;4.50;4.00;;;;;19.88;47.44;100899.91;5127933;27;46649;-78
2022/08/30 02:31:30;;;;;;;;;3.75;3.75;;;;;19.82;46.91;100887.88;5122401;27;45313;-78
2022/08/30 02:33:56;;;;;;;;;5.25;5.25;;;;;19.83;46.84;100894.91;5119956;27;45406;-78
2022/08/30 02:36:21;;;;;;;;;6.25;6.25;;;;;19.82;46.91;100890.53;5118454;27;45200;-78
2022/08/30 02:38:48;;;;;;;;;6.00;6.00;;;;;19.81;46.98;100888.84;5117867;27;45220;-79
2022/08/30 02:41:13;;;;;;;;;4.00;4.00;;;;;19.79;47.10;100888.09;5098945;27;45968;-78
2022/08/30 02:43:39;;;;;;;;;4.25;4.25;;;;;19.80;47.68;100889.81;5117550;27;45346;-78
2022/08/30 02:46:05;;;;;;;;;10.75;10.75;;;;;19.72;47.08;100882.38;5117381;27;45388;-79
2022/08/30 02:48:30;;;;;;;;;3.75;3.75;;;;;19.70;47.25;100876.31;5116961;27;45391;-78
2022/08/30 02:50:55;;;;;;;;;5.50;5.50;;;;;19.71;47.24;100883.34;5098209;27;45409;-78
2022/08/30 02:53:21;;;;;;;;;6.75;6.75;;;;;19.68;47.59;100878.25;5117252;27;45334;-79
2022/08/30 02:55:48;;;;;;;;;3.50;3.50;;;;;19.69;47.44;100886.13;5097738;27;45547;-80
2022/08/30 02:58:14;;;;;;;;;5.00;5.00;;;;;19.66;47.68;100873.00;5117350;27;45299;-78
2022/08/30 03:00:40;;;;;;;;;3.75;3.75;;;;;19.65;47.25;100865.13;5117123;27;45346;-80
2022/08/30 03:03:06;;;;;;;;;5.25;5.25;;;;;19.65;47.34;100887.31;5118368;27;45326;-77
2022/08/30 03:05:32;;;;;;;;;4.25;4.25;;;;;19.67;47.58;100898.72;5116436;27;45541;-80
2022/08/30 03:07:58;;;;;;;;;4.00;4.00;;;;;19.63;47.47;100897.25;5115391;27;45568;-78
2022/08/30 03:10:26;;;;;;;;;3.50;3.50;;;;;19.65;47.92;100914.00;5117084;27;45345;-78
2022/08/30 03:12:52;;;;;;;;;3.75;3.75;;;;;19.63;47.78;100913.25;5117159;27;45326;-78
2022/08/30 03:15:17;;;;;;;;;5.00;5.00;;;;;19.61;47.92;100915.19;5097731;27;45559;-78
2022/08/30 03:17:43;;;;;;;;;5.25;5.25;;;;;19.61;48.51;100916.97;5098501;27;48364;-79
2022/08/30 03:20:10;;;;;;;;;6.50;6.50;;;;;19.52;55.20;100915.84;5116591;27;45354;-78
2022/08/30 03:22:35;;;;;;;;;6.00;6.00;;;;;19.06;60.18;100899.50;5116971;27;45368;-78
2022/08/30 03:25:01;;;;;;;;;8.25;8.25;;;;;18.46;61.59;100901.88;5117024;27;45503;-77
2022/08/30 03:27:28;;;;;;;;;7.75;7.75;;;;;17.85;64.37;100883.69;5116740;27;48412;-77
2022/08/30 03:29:54;;;;;;;;;10.50;10.00;;;;;17.28;67.43;100896.22;5116937;27;45397;-78
2022/08/30 03:32:19;;;;;;;;;9.00;9.00;;;;;16.95;70.17;100910.63;5117051;27;45472;-79
2022/08/30 03:34:45;;;;;;;;;11.00;11.00;;;;;16.76;71.86;100914.41;5117538;27;45334;-78
2022/08/30 03:37:10;;;;;;;;;10.25;10.25;;;;;16.62;71.46;100912.63;5116971;27;45358;-78
2022/08/30 03:39:36;;;;;;;;;8.50;8.50;;;;;16.39;71.73;100890.09;5116584;27;45409;-77
2022/08/30 03:42:02;;;;;;;;;9.00;9.00;;;;;16.20;71.64;100862.00;5116540;27;45426;-79
2022/08/30 03:44:27;;;;;;;;;9.75;9.75;;;;;16.04;71.37;100847.94;5098457;27;45324;-77
2022/08/30 03:46:53;;;;;;;;;11.00;11.00;;;;;16.00;72.67;100831.31;5117054;27;46162;-78
2022/08/30 03:49:19;;;;;;;;;11.00;11.00;;;;;15.94;71.41;100815.78;5117353;27;45548;-78
2022/08/30 03:51:44;;;;;;;;;11.50;11.50;;;;;15.93;71.47;100799.97;5117646;27;45315;-78
2022/08/30 03:54:10;;;;;;;;;8.25;8.25;;;;;15.93;70.31;100799.97;5100720;27;45318;-78
2022/08/30 03:56:35;;;;;;;;;12.50;12.50;;;;;15.90;71.21;100809.81;5098229;27;47245;-77
2022/08/30 03:59:01;;;;;;;;;8.25;8.25;;;;;15.91;71.08;100797.38;5117027;27;45330;-77
2022/08/30 04:01:26;;;;;;;;;9.00;9.00;;;;;15.94;71.00;100805.16;5117666;27;45389;-78
2022/08/30 04:03:52;;;;;;;;;10.00;10.00;;;;;16.01;70.94;100803.84;5116428;27;45358;-76
2022/08/30 04:06:18;;;;;;;;;8.00;8.00;;;;;16.06;70.93;100798.28;5099080;27;46527;-76
2022/08/30 04:08:44;;;;;;;;;9.25;9.25;;;;;16.12;70.69;100789.94;5120070;27;45322;-77
2022/08/30 04:11:11;;;;;;;;;10.00;9.50;;;;;16.20;70.42;100793.00;5120135;27;45314;-77
2022/08/30 04:13:36;;;;;;;;;10.00;10.00;;;;;16.29;70.69;100802.19;5120309;27;45313;-78
2022/08/30 04:16:02;;;;;;;;;10.00;10.00;;;;;16.38;70.37;100800.78;5119483;27;46238;-78
2022/08/30 04:18:27;;;;;;;;;11.50;11.00;;;;;16.40;70.08;100792.69;5120065;27;45348;-78
2022/08/30 04:20:52;;;;;;;;;9.00;9.00;;;;;16.48;69.43;100785.97;5119654;27;45432;-78
2022/08/30 04:23:19;;;;;;;;;6.00;6.00;;;;;16.50;68.63;100781.44;5119745;27;45428;-76
2022/08/30 04:25:44;;;;;;;;;8.75;8.75;;;;;16.53;68.92;100783.06;5119447;27;45536;-76
2022/08/30 04:28:10;;;;;;;;;13.00;13.00;;;;;16.57;68.22;100778.41;5118928;27;45261;-77
2022/08/30 04:30:43;;;;;;;;;10.00;9.50;;;;;16.60;68.30;100776.41;5100525;27;45568;-76
2022/08/30 04:33:09;;;;;;;;;8.25;8.25;;;;;16.67;67.66;100784.84;5119774;27;45498;-78
2022/08/30 04:35:35;;;;;;;;;9.00;9.00;;;;;16.75;67.56;100790.50;5118846;27;45288;-77
2022/08/30 04:38:01;;;;;;;;;9.25;9.25;;;;;16.84;67.55;100796.19;5118931;27;45395;-76
2022/08/30 04:40:26;;;;;;;;;8.25;8.25;;;;;16.90;67.20;100799.34;5119314;27;45276;-78
2022/08/30 04:42:53;;;;;;;;;8.00;8.00;;;;;17.03;66.34;100809.22;5119451;27;45476;-79
2022/08/30 04:45:20;;;;;;;;;8.00;8.00;;;;;17.07;66.49;100808.94;5119180;27;45491;-79
2022/08/30 04:47:46;;;;;;;;;6.00;6.00;;;;;17.12;66.27;100819.25;5119023;27;45353;-78
2022/08/30 04:50:15;;;;;;;;;6.00;6.00;;;;;17.16;66.47;100810.13;5118976;27;45457;-79
2022/08/30 04:52:41;;;;;;;;;5.25;5.25;;;;;17.16;66.69;100807.47;5119496;27;45562;-78
2022/08/30 04:55:07;;;;;;;;;8.50;8.50;;;;;17.19;66.37;100803.78;5119117;27;45639;-79
2022/08/30 04:57:33;;;;;;;;;7.00;7.00;;;;;17.23;66.46;100813.25;5120787;27;45348;-77
2022/08/30 04:59:58;;;;;;;;;10.25;9.75;;;;;17.26;66.28;100812.19;5125002;27;45516;-79
2022/08/30 05:02:24;;;;;;;;;10.00;10.00;;;;;17.29;66.15;100814.66;5120609;27;45338;-78
2022/08/30 05:07:33;;;;;;;;;9.00;9.00;;;;;17.35;66.03;100809.78;5119109;27;45226;-78
2022/08/30 05:09:59;;;;;;;;;9.00;9.00;;;;;17.44;65.56;100818.13;5118841;27;45418;-78
2022/08/30 05:12:25;;;;;;;;;6.75;6.75;;;;;17.47;64.70;100821.41;5119378;27;45379;-78
2022/08/30 05:14:51;;;;;;;;;8.25;8.25;;;;;17.40;65.01;100803.31;5119143;27;46506;-77
2022/08/30 05:17:17;;;;;;;;;7.00;7.00;;;;;17.44;65.11;100818.97;5121040;27;45401;-78
2022/08/30 05:19:42;;;;;;;;;9.50;9.50;;;;;17.44;65.27;100823.44;5118588;27;45377;-78
2022/08/30 05:22:08;;;;;;;;;9.75;9.75;;;;;17.44;65.02;100813.63;5119862;27;45540;-78
2022/08/30 05:24:34;;;;;;;;;11.50;11.25;;;;;17.47;65.14;100833.88;5118638;27;46508;-77
2022/08/30 05:27:00;;;;;;;;;9.25;9.25;;;;;17.43;64.92;100829.72;5119583;27;45326;-79
2022/08/30 05:29:25;;;;;;;;;8.75;8.75;;;;;17.41;64.94;100826.31;5118952;27;45352;-77
2022/08/30 05:31:50;;;;;;;;;11.00;11.00;;;;;17.48;64.43;100843.56;5119946;27;45463;-79
2022/08/30 05:34:16;;;;;;;;;8.50;8.50;;;;;17.48;64.24;100851.53;5121568;27;45307;-77
2022/08/30 05:36:42;;;;;;;;;13.00;13.00;;;;;17.45;64.01;100846.41;5141419;27;44744;-77
2022/08/30 05:39:09;;;;;;;;;8.25;8.25;;;;;17.44;63.96;100839.41;5135385;27;45140;-79
2022/08/30 05:41:36;;;;;;;;;11.25;10.50;;;;;17.49;64.26;100847.94;5135376;27;45328;-79
2022/08/30 05:44:04;;;;;;;;;12.50;12.50;;;;;17.52;63.74;100848.59;5129036;27;45410;-77
2022/08/30 05:46:32;;;;;;;;;10.25;10.25;;;;;17.52;63.61;100842.41;5120279;27;45266;-79
2022/08/30 05:49:00;;;;;;;;;9.50;9.50;;;;;17.62;63.28;100861.28;5101401;27;45285;-78
2022/08/30 05:51:27;;;;;;;;;8.00;8.00;;;;;17.62;62.76;100858.63;5119535;27;45513;-79
2022/08/30 05:53:54;;;;;;;;;9.50;9.50;;;;;17.68;62.43;100858.22;5120132;27;45518;-80
2022/08/30 05:56:27;;;;;;;;;10.25;10.25;;;;;17.76;61.98;100861.22;5120036;27;45203;-79
2022/08/30 05:58:53;;;;;;;;;7.75;7.75;;;;;17.82;61.49;100859.94;5120193;27;45259;-79
2022/08/30 06:01:34;;;;;;;;;9.00;9.00;;;;;17.84;61.29;100868.69;5101095;27;45535;-78
2022/08/30 06:04:02;;;;;;;;;8.00;8.00;;;;;17.79;61.07;100854.84;5120500;27;45490;-81
2022/08/30 06:06:28;;;;;;;;;8.75;8.75;;;;;17.86;60.55;100865.94;5120369;27;45256;-80
2022/08/30 06:08:55;;;;;;;;;9.00;9.00;;;;;17.94;60.62;100874.25;5119868;27;45235;-78
2022/08/30 06:11:23;;;;;;;;;7.75;7.75;;;;;18.00;60.26;100851.69;5119995;27;45289;-80
2022/08/30 06:13:50;;;;;;;;;8.00;8.00;;;;;18.01;60.34;100843.66;5119009;27;46537;-79
2022/08/30 06:16:19;;;;;;;;;8.00;8.00;;;;;18.00;60.21;100831.28;5100711;27;45409;-81
2022/08/30 06:18:46;;;;;;;;;9.00;9.00;;;;;18.15;60.23;100852.50;5120026;27;45306;-79
2022/08/30 06:21:20;;;;;;;;;9.50;9.50;;;;;18.23;60.58;100850.16;5100567;27;45361;-80
2022/08/30 06:23:45;;;;;;;;;6.25;6.25;;;;;18.32;59.91;100854.03;5118320;27;45460;-78
2022/08/30 06:26:10;;;;;;;;;9.75;9.75;;;;;18.37;59.95;100863.38;5118584;27;45237;-79
2022/08/30 06:28:36;;;;;;;;;8.25;8.25;;;;;18.32;59.25;100840.72;5099495;27;45357;-79
2022/08/30 06:31:05;;;;;;;;;9.75;9.75;;;;;18.43;59.28;100861.25;5118861;27;45348;-78
2022/08/30 06:33:30;;;;;;;;;9.25;8.75;;;;;18.41;59.27;100858.72;5118198;27;46187;-80
2022/08/30 06:36:02;;;;;;;;;13.00;11.00;;;;;18.43;59.11;100858.59;5118403;27;45351;-79
2022/08/30 06:38:28;;;;;;;;;9.00;9.00;;;;;18.50;58.43;100865.19;5120018;27;45219;-80
2022/08/30 06:40:53;;;;;;;;;9.50;9.50;;;;;18.44;58.94;100850.50;5102509;27;45568;-80
2022/08/30 06:43:18;;;;;;;;;16.00;16.00;;;;;18.57;58.68;100871.84;5122303;27;49083;-80
2022/08/30 06:45:44;;;;;;;;;9.00;9.00;;;;;18.66;58.24;100870.31;5125995;27;45214;-79
2022/08/30 06:48:09;;;;;;;;;10.25;10.25;;;;;18.69;58.05;100867.44;5129470;27;45465;-78
2022/08/30 06:50:35;;;;;;;;;7.75;7.75;;;;;18.69;58.15;100855.00;5131418;27;45270;-80
2022/08/30 06:53:04;;;;;;;;;8.25;8.25;;;;;18.73;57.36;100852.94;5131785;27;45343;-77
2022/08/30 06:55:32;;;;;;;;;6.25;6.25;;;;;18.83;57.65;100850.50;5131534;27;45293;-77
2022/08/30 06:57:59;;;;;;;;;8.25;8.25;;;;;18.97;56.84;100866.38;5133886;27;45214;-79
2022/08/30 07:00:25;;;;;;;;;9.25;9.25;;;;;18.97;56.56;100862.84;5116113;27;44812;-78
2022/08/30 07:02:51;;;;;;;;;8.75;8.75;;;;;18.98;56.73;100875.22;5135082;27;45269;-79
2022/08/30 07:05:20;;;;;;;;;19.75;19.75;;;;;18.94;56.80;100865.72;5134239;27;44801;-78
2022/08/30 07:07:46;;;;;;;;;13.00;12.25;;;;;19.10;57.41;100879.72;5132836;27;44766;-78
2022/08/30 07:10:13;;;;;;;;;10.25;10.25;;;;;19.21;57.15;100880.75;5142694;27;45555;-81
2022/08/30 07:12:39;;;;;;;;;11.00;11.00;;;;;19.10;56.30;100854.84;5143901;27;46300;-77
2022/08/30 07:15:05;;;;;;;;;16.50;16.50;;;;;19.29;56.04;100878.38;5145832;27;45358;-77
2022/08/30 07:20:18;;;;;;;;;15.50;15.50;;;;;19.25;56.04;100866.22;5147534;27;45505;-79
2022/08/30 07:22:45;;;;;;;;;16.50;16.50;;;;;19.40;56.21;100890.91;5129321;27;47179;-78
2022/08/30 07:25:10;;;;;;;;;13.25;13.25;;;;;19.47;55.67;100891.34;5128736;27;46384;-79
2022/08/30 07:27:36;;;;;;;;;13.75;13.75;;;;;19.40;55.49;100880.25;5147283;27;44845;-80
2022/08/30 07:30:02;;;;;;;;;12.50;12.50;;;;;19.41;55.77;100887.28;5124962;27;45537;-79
2022/08/30 07:32:29;;;;;;;;;10.50;10.50;;;;;19.49;55.92;100890.25;5140874;27;46097;-78
2022/08/30 07:34:54;;;;;;;;;11.00;11.00;;;;;19.47;55.30;100880.66;5124138;27;45327;-80
2022/08/30 07:37:20;;;;;;;;;9.00;9.00;;;;;19.50;55.10;100880.44;5124953;27;45309;-80
2022/08/30 07:39:45;;;;;;;;;9.00;9.00;;;;;19.52;54.99;100874.00;5144339;27;45243;-78
2022/08/30 07:42:10;;;;;;;;;13.25;13.25;;;;;19.59;54.85;100879.75;5144176;27;45348;-78
2022/08/30 07:44:36;;;;;;;;;14.25;14.25;;;;;19.69;55.41;100883.44;5143053;27;45380;-80
2022/08/30 07:47:02;;;;;;;;;10.00;9.50;;;;;19.78;55.07;100879.25;5125569;27;45382;-79
2022/08/30 07:49:28;;;;;;;;;9.50;9.50;;;;;19.92;54.42;100888.06;5144776;27;45596;-79
2022/08/30 07:51:55;;;;;;;;;10.50;10.25;;;;;20.00;54.78;100889.19;5122593;27;46889;-80
2022/08/30 07:54:21;;;;;;;;;12.00;12.00;;;;;20.12;54.55;100897.22;5122477;27;45415;-79
2022/08/30 07:56:47;;;;;;;;;12.00;12.00;;;;;20.18;54.27;100898.59;5141743;27;45319;-79
2022/08/30 07:59:13;;;;;;;;;11.25;11.25;;;;;20.27;54.20;100900.56;5122037;27;45280;-79
2022/08/30 08:01:38;;;;;;;;;10.50;10.50;;;;;20.31;53.49;100887.84;5145813;27;45275;-79
2022/08/30 08:04:03;;;;;;;;;11.25;11.25;;;;;20.44;53.65;100901.97;5122286;27;45370;-79
2022/08/30 08:06:29;;;;;;;;;17.50;17.50;;;;;20.52;53.67;100899.53;5120778;27;45786;-78
2022/08/30 08:08:56;;;;;;;;;12.75;12.75;;;;;20.61;53.64;100887.28;5137814;27;45600;-79
2022/08/30 08:11:24;;;;;;;;;13.00;13.00;;;;;20.86;52.93;100904.94;5137336;27;46385;-80
2022/08/30 08:13:51;;;;;;;;;10.50;10.50;;;;;20.96;52.80;100910.44;5139065;27;45267;-80
2022/08/30 08:16:16;;;;;;;;;17.50;17.50;;;;;21.05;52.34;100906.16;5138354;27;45364;-80
2022/08/30 08:18:42;;;;;;;;;10.50;10.25;;;;;21.24;52.40;100910.91;5138995;27;45492;-78
2022/08/30 08:21:07;;;;;;;;;12.75;12.75;;;;;21.33;52.37;100887.06;5138291;27;46227;-81
2022/08/30 08:23:32;;;;;;;;;13.00;13.00;;;;;21.44;51.28;100901.28;5138799;27;45271;-79
2022/08/30 08:25:58;;;;;;;;;12.50;12.00;;;;;21.56;51.14;100914.63;5138956;27;45226;-81
2022/08/30 08:28:24;;;;;;;;;11.50;11.50;;;;;21.53;51.15;100907.69;5138543;27;45325;-79
2022/08/30 08:30:49;;;;;;;;;11.00;11.00;;;;;21.62;51.41;100913.25;5119194;27;46922;-80
2022/08/30 08:33:15;;;;;;;;;12.75;12.75;;;;;21.74;50.62;100918.50;5141998;27;45265;-79
2022/08/30 08:35:41;;;;;;;;;12.00;12.00;;;;;21.82;50.60;100919.69;5139843;27;45418;-80
2022/08/30 08:38:07;;;;;;;;;11.00;11.00;;;;;21.78;50.41;100912.88;5140190;27;45492;-79
2022/08/30 08:41:01;;;;;;;;;15.50;14.50;;;;;21.90;50.50;100933.28;5138511;27;46343;-78
2022/08/30 08:43:28;;;;;;;;;12.25;12.25;;;;;21.99;50.14;100929.84;5138340;27;45499;-79
2022/08/30 08:45:54;;;;;;;;;15.25;15.25;;;;;22.09;50.17;100939.78;5137613;27;45207;-80
2022/08/30 08:48:41;;;;;;;;;11.00;11.00;;;;;22.20;50.21;100942.41;5137598;27;45502;-80
2022/08/30 08:54:11;;;;;;;;;17.00;17.00;;;;;22.38;50.02;100933.81;5139333;27;45395;-79
2022/08/30 08:56:37;;;;;;;;;9.25;9.25;;;;;22.54;49.27;100938.75;5141104;27;45258;-78
2022/08/30 08:59:06;;;;;;;;;12.25;12.25;;;;;22.69;49.22;100939.25;5141305;27;45527;-81
2022/08/30 09:01:32;;;;;;;;;11.50;11.50;;;;;22.89;48.47;100945.59;5122878;27;47774;-81
2022/08/30 09:04:02;;;;;;;;;11.75;11.75;;;;;22.95;48.31;100942.38;5123726;27;45329;-80
2022/08/30 09:06:44;;;;;;;;;11.75;11.75;;;;;23.24;48.06;100952.41;5157663;27;45294;-78
2022/08/30 09:09:10;;;;;;;;;12.50;12.50;;;;;23.41;47.97;100940.19;5138518;27;45248;-80
2022/08/30 09:11:38;;;;;;;;;13.75;13.75;;;;;23.63;47.59;100954.34;5147828;27;46228;-78
2022/08/30 09:14:16;;;;;;;;;14.00;14.00;;;;;23.78;46.95;100958.34;5145441;27;45360;-78
2022/08/30 09:16:49;;;;;;;;;8.75;8.75;;;;;23.95;47.16;100964.00;5122163;27;45493;-80
2022/08/30 09:19:44;;;;;;;;;14.50;14.25;;;;;24.09;46.64;100962.78;5141607;27;45504;-78
2022/08/30 09:22:21;;;;;;;;;11.75;10.75;;;;;24.31;45.98;100955.44;5122401;27;46470;-77
2022/08/30 09:24:50;;;;;;;;;14.00;14.00;;;;;24.49;45.57;100950.19;5140448;27;45446;-78
2022/08/30 09:27:24;;;;;;;;;11.75;11.75;;;;;24.57;45.62;100954.81;5141512;27;45360;-79
2022/08/30 09:30:06;;;;;;;;;12.25;11.00;;;;;24.60;45.31;100946.47;5141979;27;45316;-78
2022/08/30 09:32:49;;;;;;;;;13.75;13.75;;;;;24.78;44.46;100965.44;5122130;27;47321;-79
2022/08/30 09:35:41;;;;;;;;;13.50;13.50;;;;;24.85;44.87;100958.47;5141034;27;45467;-79
2022/08/30 09:38:11;;;;;;;;;12.25;12.25;;;;;25.00;44.39;100958.84;5140571;27;45377;-80
2022/08/30 09:40:46;;;;;;;;;10.25;10.25;;;;;25.10;44.38;100945.34;5141252;27;45328;-80
2022/08/30 09:43:33;;;;;;;;;22.75;22.75;;;;;25.43;43.96;100966.44;5143749;27;45436;-79
2022/08/30 09:45:58;;;;;;;;;14.25;13.75;;;;;25.61;43.62;100963.84;5124206;27;45476;-82
2022/08/30 09:48:44;;;;;;;;;11.25;11.25;;;;;25.71;43.19;100961.94;5121842;27;45266;-79
2022/08/30 09:51:17;;;;;;;;;12.50;12.50;;;;;25.77;43.07;100965.84;5122223;27;45336;-79
2022/08/30 09:54:10;;;;;;;;;9.50;9.50;;;;;25.79;42.36;100963.84;5120873;27;47320;-81
2022/08/30 09:56:52;;;;;;;;;15.75;13.75;;;;;25.77;42.59;100971.22;5140038;27;45386;-81
2022/08/30 09:59:44;;;;;;;;;11.50;11.00;;;;;25.80;42.29;100969.09;5121279;27;45513;-81
2022/08/30 10:02:28;;;;;;;;;13.00;13.00;;;;;25.87;42.92;100961.22;5090341;27;45685;-79
2022/08/30 10:05:06;;;;;;;;;14.25;14.25;;;;;26.04;42.65;100969.50;5138778;27;45402;-79
2022/08/30 10:07:35;;;;;;;;;19.75;19.75;;;;;26.17;42.15;100972.69;5139471;27;45280;-80
2022/08/30 10:10:18;;;;;;;;;13.75;13.75;;;;;26.28;41.72;100968.06;5139930;27;45377;-80
2022/08/30 10:13:11;;;;;;;;;13.00;12.25;;;;;26.29;41.70;100975.97;5140106;27;45337;-80
2022/08/30 10:16:04;;;;;;;;;14.75;14.50;;;;;26.32;42.08;100964.88;5139842;27;45300;-80
2022/08/30 10:18:39;;;;;;;;;17.75;17.75;;;;;26.36;41.64;100960.84;5141320;27;45244;-81
2022/08/30 10:21:25;;;;;;;;;15.25;15.25;;;;;26.51;41.50;100971.94;5141634;27;45396;-79
2022/08/30 10:24:04;;;;;;;;;17.75;17.75;;;;;26.61;41.20;100954.81;5129549;27;45004;-79
2022/08/30 10:26:48;;;;;;;;;15.00;14.00;;;;;26.71;41.08;100965.50;5140801;27;46215;-79
2022/08/30 10:29:58;;;;;;;;;13.75;13.75;;;;;26.81;40.99;100968.94;5140058;27;45258;-80
2022/08/30 10:32:34;;;;;;;;;13.75;13.75;;;;;26.90;40.19;100977.94;5140072;27;45243;-79
2022/08/30 10:35:12;;;;;;;;;12.25;12.25;;;;;26.81;40.20;100974.34;5120744;27;45269;-80
2022/08/30 10:37:43;;;;;;;;;19.25;19.25;;;;;26.79;40.39;100968.25;5137782;27;45427;-80
2022/08/30 10:43:22;;;;;;;;;12.25;12.25;;;;;26.65;40.85;100965.13;5138328;27;45477;-81
2022/08/30 10:45:50;;;;;;;;;16.75;15.75;;;;;26.47;40.69;100938.19;5138469;27;45423;-81
2022/08/30 10:48:22;;;;;;;;;15.00;15.00;;;;;26.77;40.90;100968.41;5119533;27;47734;-79
2022/08/30 10:50:52;;;;;;;;;15.75;15.25;;;;;26.88;40.06;100971.88;5119928;27;45475;-79
2022/08/30 10:53:29;;;;;;;;;13.75;13.75;;;;;26.96;40.25;100978.16;5139531;27;45216;-79
2022/08/30 10:56:09;;;;;;;;;12.25;12.25;;;;;26.97;40.46;100973.59;5139240;27;45305;-79
2022/08/30 10:58:39;;;;;;;;;19.75;18.75;;;;;27.03;40.74;100978.34;5121057;27;48095;-78
2022/08/30 11:01:24;;;;;;;;;19.25;19.25;;;;;27.14;40.39;100974.53;5139370;27;45276;-79
2022/08/30 11:04:15;;;;;;;;;12.25;12.25;;;;;27.17;39.91;100973.41;5138821;27;45450;-80
2022/08/30 11:06:53;;;;;;;;;14.00;14.00;;;;;27.19;39.56;100977.59;5138705;27;45375;-80
2022/08/30 11:09:33;;;;;;;;;12.25;12.25;;;;;27.16;40.04;100972.53;5137690;27;46318;-79
2022/08/30 11:12:20;;;;;;;;;13.50;12.75;;;;;27.18;39.65;100975.91;5138217;27;45258;-79
2022/08/30 11:14:46;;;;;;;;;13.50;13.50;;;;;27.20;39.34;100973.06;5121391;27;45400;-78
2022/08/30 11:17:35;;;;;;;;;16.75;16.25;;;;;27.30;39.44;100979.19;5118310;27;45490;-79
2022/08/30 11:20:04;;;;;;;;;11.25;11.25;;;;;27.40;39.53;100968.25;5119197;27;46179;-79
2022/08/30 11:22:35;;;;;;;;;14.00;14.00;;;;;27.48;39.41;100967.44;5117491;27;45731;-79
2022/08/30 11:25:11;;;;;;;;;14.00;14.00;;;;;27.49;38.84;100964.59;5117264;27;45470;-80
2022/08/30 11:27:43;;;;;;;;;12.25;12.25;;;;;27.59;39.23;100971.72;5117865;27;45456;-79
2022/08/30 11:30:23;;;;;;;;;12.25;11.75;;;;;27.62;39.12;100974.94;5117321;27;46491;-80
2022/08/30 11:33:01;;;;;;;;;15.25;15.25;;;;;27.55;38.37;100976.59;5120732;27;45281;-80
2022/08/30 11:35:41;;;;;;;;;14.50;14.50;;;;;27.38;38.76;100963.00;5118710;27;45393;-80
2022/08/30 11:38:37;;;;;;;;;12.25;12.25;;;;;27.28;38.95;100959.59;5118095;27;45446;-80